Time;durP1;ratioP1;P1;durP2;ratioP2;P2;SDS_P1;SDS_P2;PMS_P1;PMS_P2;Temp;Humidity;BMP_temperature;BMP_pressure;BME280_temperature;BME280_humidity;BME280_pressure;Samples;Min_cycle;Max_cycle;Signal;HPM_P1;HPM_P2
2024/02/25 00:00:54;;;;;;;8.52;3.22;;;;;;;;;;5020199;28;20044;-65
2024/02/25 00:03:21;;;;;;;9.88;3.42;;;;;;;;;;5019777;28;20550;-65
2024/02/25 00:05:47;;;;;;;9.68;3.55;;;;;;;;;;5020628;28;20057;-65
2024/02/25 00:08:13;;;;;;;26.02;3.85;;;;;;;;;;5022128;28;20407;-65
2024/02/25 00:10:40;;;;;;;7.88;3.20;;;;;;;;;;5020997;28;20052;-65
2024/02/25 00:13:06;;;;;;;9.98;4.43;;;;;;;;;;5019720;28;20046;-65
2024/02/25 00:15:33;;;;;;;9.40;5.13;;;;;;;;;;5016406;28;20068;-65
2024/02/25 00:17:59;;;;;;;10.60;5.63;;;;;;;;;;5018047;28;20037;-65
2024/02/25 00:20:25;;;;;;;12.75;5.85;;;;;;;;;;5022848;28;20037;-65
2024/02/25 00:22:51;;;;;;;9.05;5.68;;;;;;;;;;5018669;28;20053;-65
2024/02/25 00:25:17;;;;;;;16.15;6.82;;;;;;;;;;5020285;28;20053;-65
2024/02/25 00:27:43;;;;;;;14.77;7.45;;;;;;;;;;5014020;28;20550;-65
2024/02/25 00:30:10;;;;;;;10.43;7.25;;;;;;;;;;5018545;28;20037;-65
2024/02/25 00:32:36;;;;;;;12.98;6.20;;;;;;;;;;5018658;28;20079;-65
2024/02/25 00:35:02;;;;;;;13.88;6.63;;;;;;;;;;5020271;28;20073;-65
2024/02/25 00:37:28;;;;;;;10.13;6.35;;;;;;;;;;5018807;28;20091;-65
2024/02/25 00:39:55;;;;;;;10.93;6.57;;;;;;;;;;5020041;28;20094;-65
2024/02/25 00:42:21;;;;;;;12.45;6.50;;;;;;;;;;5018957;28;21608;-65
2024/02/25 00:44:48;;;;;;;13.55;6.97;;;;;;;;;;5016371;28;20113;-65
2024/02/25 00:47:15;;;;;;;14.88;6.45;;;;;;;;;;5019261;28;20062;-65
2024/02/25 00:49:42;;;;;;;11.52;6.22;;;;;;;;;;5021842;28;20136;-65
2024/02/25 00:52:08;;;;;;;11.10;5.95;;;;;;;;;;5024800;28;20042;-65
2024/02/25 00:54:35;;;;;;;10.88;6.43;;;;;;;;;;5025171;28;20463;-65
2024/02/25 00:57:01;;;;;;;8.45;5.90;;;;;;;;;;5024611;28;20396;-65
2024/02/25 00:59:27;;;;;;;14.30;6.82;;;;;;;;;;5010093;28;20049;-65
2024/02/25 01:01:53;;;;;;;11.70;6.68;;;;;;;;;;5024094;28;20095;-65
2024/02/25 01:04:20;;;;;;;15.63;6.45;;;;;;;;;;5022282;28;20049;-65
2024/02/25 01:06:48;;;;;;;12.38;7.10;;;;;;;;;;5023390;28;20470;-65
2024/02/25 01:09:14;;;;;;;10.82;7.03;;;;;;;;;;5022547;28;20689;-65
2024/02/25 01:11:40;;;;;;;13.13;7.20;;;;;;;;;;5026541;28;20128;-65
2024/02/25 01:14:07;;;;;;;15.40;8.50;;;;;;;;;;5022831;28;20053;-66
2024/02/25 01:16:33;;;;;;;14.48;8.13;;;;;;;;;;5024789;28;20485;-65
2024/02/25 01:18:59;;;;;;;14.32;7.22;;;;;;;;;;5030881;28;20037;-65
2024/02/25 01:21:25;;;;;;;14.65;7.82;;;;;;;;;;5030327;28;20041;-65
2024/02/25 01:23:52;;;;;;;18.05;8.70;;;;;;;;;;5023953;28;20460;-65
2024/02/25 01:26:18;;;;;;;13.02;8.10;;;;;;;;;;5029083;28;20112;-65
2024/02/25 01:28:46;;;;;;;12.18;7.57;;;;;;;;;;5027681;28;20497;-65
2024/02/25 01:31:12;;;;;;;15.32;8.55;;;;;;;;;;5025981;28;20045;-65
2024/02/25 01:33:38;;;;;;;17.90;8.95;;;;;;;;;;5022153;28;20129;-65
2024/02/25 01:36:05;;;;;;;20.40;9.23;;;;;;;;;;5024701;28;20144;-65
2024/02/25 01:38:32;;;;;;;16.00;9.05;;;;;;;;;;5025332;28;20037;-65
2024/02/25 01:40:58;;;;;;;19.60;8.85;;;;;;;;;;5020919;28;20037;-65
2024/02/25 01:43:24;;;;;;;17.42;9.25;;;;;;;;;;5023617;28;20053;-65
2024/02/25 01:45:50;;;;;;;16.75;8.70;;;;;;;;;;5027325;28;20345;-65
2024/02/25 01:48:19;;;;;;;21.90;9.98;;;;;;;;;;5028593;28;20045;-65
2024/02/25 01:50:46;;;;;;;18.20;9.80;;;;;;;;;;5032188;28;20056;-65
2024/02/25 01:53:13;;;;;;;16.45;9.23;;;;;;;;;;5028325;28;20164;-65
2024/02/25 01:55:40;;;;;;;19.75;9.32;;;;;;;;;;5029881;28;20091;-65
2024/02/25 01:58:07;;;;;;;20.35;9.65;;;;;;;;;;5024328;28;20081;-65
2024/02/25 02:00:34;;;;;;;23.55;9.63;;;;;;;;;;5023941;28;20372;-65
2024/02/25 02:03:00;;;;;;;17.60;9.25;;;;;;;;;;5021577;28;20494;-65
2024/02/25 02:05:26;;;;;;;19.52;9.90;;;;;;;;;;5019716;28;20120;-65
2024/02/25 02:07:54;;;;;;;21.60;8.82;;;;;;;;;;5024047;28;20052;-65
2024/02/25 02:10:20;;;;;;;17.50;8.88;;;;;;;;;;5035658;28;20102;-65
2024/02/25 02:12:47;;;;;;;18.27;8.57;;;;;;;;;;5028973;28;20501;-65
2024/02/25 02:15:14;;;;;;;21.27;9.00;;;;;;;;;;5041852;28;20103;-65
2024/02/25 02:17:41;;;;;;;16.50;8.30;;;;;;;;;;5024616;28;20045;-65
2024/02/25 02:20:11;;;;;;;18.52;7.78;;;;;;;;;;5024822;28;20187;-65
2024/02/25 02:22:38;;;;;;;16.38;7.18;;;;;;;;;;5022716;28;20041;-65
2024/02/25 02:25:04;;;;;;;14.07;7.35;;;;;;;;;;5024855;28;20036;-65
2024/02/25 02:27:31;;;;;;;14.65;7.22;;;;;;;;;;5028747;28;20073;-65
2024/02/25 02:29:57;;;;;;;16.83;7.38;;;;;;;;;;5032844;28;20136;-65
2024/02/25 02:32:23;;;;;;;12.35;6.53;;;;;;;;;;5030023;28;20041;-65
2024/02/25 02:34:49;;;;;;;10.35;5.80;;;;;;;;;;5028799;28;20054;-65
2024/02/25 02:37:15;;;;;;;13.07;5.95;;;;;;;;;;5025746;28;20049;-65
2024/02/25 02:39:42;;;;;;;13.80;5.68;;;;;;;;;;5017906;28;20069;-65
2024/02/25 02:42:10;;;;;;;10.35;4.78;;;;;;;;;;5017788;28;20177;-65
2024/02/25 02:44:37;;;;;;;9.88;4.80;;;;;;;;;;5018460;28;20116;-65
2024/02/25 02:47:03;;;;;;;8.02;4.60;;;;;;;;;;5023990;28;20045;-65
2024/02/25 02:49:29;;;;;;;13.73;6.47;;;;;;;;;;5019928;28;20041;-65
2024/02/25 02:51:58;;;;;;;8.98;4.70;;;;;;;;;;5021234;28;20132;-65
2024/02/25 02:54:25;;;;;;;8.93;4.68;;;;;;;;;;5026985;28;20439;-65
2024/02/25 02:56:51;;;;;;;7.97;3.97;;;;;;;;;;5027443;28;20576;-65
2024/02/25 02:59:17;;;;;;;9.45;4.30;;;;;;;;;;5019856;28;20440;-65
2024/02/25 03:01:44;;;;;;;6.28;3.60;;;;;;;;;;5020706;28;20049;-65
2024/02/25 03:04:10;;;;;;;9.18;3.90;;;;;;;;;;5021035;28;20049;-65
2024/02/25 03:06:36;;;;;;;7.47;3.25;;;;;;;;;;5023025;28;20833;-65
2024/02/25 03:09:02;;;;;;;6.97;3.33;;;;;;;;;;5020053;28;20092;-65
2024/02/25 03:11:28;;;;;;;7.68;3.22;;;;;;;;;;5022289;28;20042;-65
2024/02/25 03:13:54;;;;;;;9.48;3.25;;;;;;;;;;5015537;28;20057;-65
2024/02/25 03:16:20;;;;;;;7.63;3.25;;;;;;;;;;5019407;28;20045;-65
2024/02/25 03:18:47;;;;;;;9.32;3.30;;;;;;;;;;5024183;28;20099;-65
2024/02/25 03:21:13;;;;;;;7.68;2.88;;;;;;;;;;5019531;28;20065;-65
2024/02/25 03:23:39;;;;;;;8.32;3.10;;;;;;;;;;5021128;28;20041;-65
2024/02/25 03:26:05;;;;;;;8.45;3.08;;;;;;;;;;5023923;28;20034;-65
2024/02/25 03:28:31;;;;;;;5.30;2.30;;;;;;;;;;5020671;28;20501;-65
2024/02/25 03:30:58;;;;;;;7.32;3.13;;;;;;;;;;5024481;28;20069;-65
2024/02/25 03:33:24;;;;;;;6.15;2.45;;;;;;;;;;5018519;28;20053;-65
2024/02/25 03:35:50;;;;;;;7.82;2.80;;;;;;;;;;5020909;28;20124;-65
2024/02/25 03:38:16;;;;;;;7.70;2.85;;;;;;;;;;5024825;28;20477;-65
2024/02/25 03:40:42;;;;;;;6.13;2.53;;;;;;;;;;5023425;28;20071;-65
2024/02/25 03:43:13;;;;;;;7.15;3.05;;;;;;;;;;5022189;28;20394;-65
2024/02/25 03:45:39;;;;;;;11.93;3.47;;;;;;;;;;5028929;28;20119;-65
2024/02/25 03:48:06;;;;;;;8.45;3.20;;;;;;;;;;5020499;28;20839;-65
2024/02/25 03:50:32;;;;;;;5.75;2.80;;;;;;;;;;5019235;28;20111;-65
2024/02/25 03:52:58;;;;;;;6.65;3.17;;;;;;;;;;5016409;28;20049;-65
2024/02/25 03:55:25;;;;;;;7.93;3.15;;;;;;;;;;5025442;28;20485;-65
2024/02/25 03:57:52;;;;;;;5.53;2.47;;;;;;;;;;5020700;28;20167;-65
2024/02/25 04:00:18;;;;;;;7.60;3.47;;;;;;;;;;5022008;28;20126;-65
2024/02/25 04:02:45;;;;;;;8.88;3.47;;;;;;;;;;5018980;28;20099;-65
2024/02/25 04:05:13;;;;;;;10.75;3.40;;;;;;;;;;5023664;28;20118;-65
2024/02/25 04:07:39;;;;;;;6.78;3.53;;;;;;;;;;5023689;28;20112;-65
2024/02/25 04:10:05;;;;;;;11.38;4.78;;;;;;;;;;5016880;28;20041;-65
2024/02/25 04:12:31;;;;;;;8.80;4.13;;;;;;;;;;5022280;28;20033;-65
2024/02/25 04:14:58;;;;;;;9.93;3.67;;;;;;;;;;5020756;28;20041;-65
2024/02/25 04:17:26;;;;;;;9.80;3.42;;;;;;;;;;5018860;28;20079;-65
2024/02/25 04:19:53;;;;;;;8.07;3.40;;;;;;;;;;5021647;28;20052;-65
2024/02/25 04:22:19;;;;;;;6.68;3.58;;;;;;;;;;5023323;28;20056;-65
2024/02/25 04:24:45;;;;;;;8.85;4.38;;;;;;;;;;5024181;28;20052;-65
2024/02/25 04:27:11;;;;;;;8.93;3.83;;;;;;;;;;5018180;28;20041;-65
2024/02/25 04:29:38;;;;;;;7.78;3.80;;;;;;;;;;5017034;28;20103;-65
2024/02/25 04:32:04;;;;;;;8.70;4.07;;;;;;;;;;5005057;28;20045;-65
2024/02/25 04:34:31;;;;;;;8.20;3.55;;;;;;;;;;5021502;28;20053;-65
2024/02/25 04:36:58;;;;;;;8.02;4.30;;;;;;;;;;5020734;28;20054;-65
2024/02/25 04:39:24;;;;;;;12.63;4.63;;;;;;;;;;5020213;28;20093;-65
2024/02/25 04:41:50;;;;;;;8.02;4.13;;;;;;;;;;5020303;28;20461;-65
2024/02/25 04:44:16;;;;;;;8.20;3.95;;;;;;;;;;5018496;28;20132;-65
2024/02/25 04:46:43;;;;;;;10.43;4.50;;;;;;;;;;5022097;28;20037;-65
2024/02/25 04:49:09;;;;;;;8.15;4.50;;;;;;;;;;5019960;28;20520;-65
2024/02/25 04:51:35;;;;;;;8.55;4.35;;;;;;;;;;5020339;28;20385;-65
2024/02/25 04:54:02;;;;;;;9.85;4.90;;;;;;;;;;5020985;28;20041;-65
2024/02/25 04:56:28;;;;;;;9.30;5.13;;;;;;;;;;5020472;28;20107;-65
2024/02/25 04:58:55;;;;;;;11.45;5.32;;;;;;;;;;5014208;28;20120;-65
2024/02/25 05:01:22;;;;;;;10.85;4.80;;;;;;;;;;5019960;28;20049;-65
2024/02/25 05:03:48;;;;;;;11.63;5.82;;;;;;;;;;5029171;28;20434;-65
2024/02/25 05:06:14;;;;;;;13.70;5.88;;;;;;;;;;5021968;28;20044;-65
2024/02/25 05:08:40;;;;;;;11.00;6.35;;;;;;;;;;5029083;28;20186;-65
2024/02/25 05:11:07;;;;;;;13.98;5.90;;;;;;;;;;5029071;28;20060;-65
2024/02/25 05:13:33;;;;;;;14.13;6.15;;;;;;;;;;5017811;28;20585;-65
2024/02/25 05:15:59;;;;;;;11.30;6.38;;;;;;;;;;5036299;28;20046;-65
2024/02/25 05:18:28;;;;;;;14.57;6.40;;;;;;;;;;5035196;28;20049;-65
2024/02/25 05:20:54;;;;;;;14.23;6.13;;;;;;;;;;5038548;28;20052;-65
2024/02/25 05:23:20;;;;;;;17.52;7.45;;;;;;;;;;5034433;28;20446;-65
2024/02/25 05:25:46;;;;;;;13.27;6.85;;;;;;;;;;5041759;28;20394;-65
2024/02/25 05:28:13;;;;;;;18.38;7.30;;;;;;;;;;5033224;28;20139;-65
2024/02/25 05:30:39;;;;;;;13.25;7.05;;;;;;;;;;5039600;28;20045;-65
2024/02/25 05:33:05;;;;;;;13.00;7.28;;;;;;;;;;5030286;28;20520;-65
2024/02/25 05:35:31;;;;;;;14.75;7.43;;;;;;;;;;5034633;28;20041;-65
2024/02/25 05:37:58;;;;;;;18.27;7.88;;;;;;;;;;5039111;28;20124;-65
2024/02/25 05:40:24;;;;;;;15.65;7.55;;;;;;;;;;5037198;28;20342;-65
2024/02/25 05:42:50;;;;;;;12.38;7.82;;;;;;;;;;5039224;28;20055;-65
2024/02/25 05:45:16;;;;;;;13.15;7.88;;;;;;;;;;5029377;28;20041;-66
2024/02/25 05:47:42;;;;;;;14.05;8.32;;;;;;;;;;5022022;28;20042;-65
2024/02/25 05:50:09;;;;;;;19.30;9.38;;;;;;;;;;5025057;28;20046;-65
2024/02/25 05:52:35;;;;;;;16.90;8.45;;;;;;;;;;5026914;28;20057;-65
2024/02/25 05:55:01;;;;;;;19.25;8.48;;;;;;;;;;5030812;28;20049;-65
2024/02/25 05:57:27;;;;;;;14.75;8.55;;;;;;;;;;5025037;28;20132;-65
2024/02/25 05:59:53;;;;;;;16.90;9.20;;;;;;;;;;5026550;28;20140;-65
2024/02/25 06:02:19;;;;;;;16.83;8.60;;;;;;;;;;5027098;28;20400;-65
2024/02/25 06:04:46;;;;;;;17.30;8.52;;;;;;;;;;5020177;28;20129;-65
2024/02/25 06:07:12;;;;;;;18.20;8.98;;;;;;;;;;5025855;28;20553;-65
2024/02/25 06:09:38;;;;;;;18.00;8.95;;;;;;;;;;5027207;28;20037;-65
2024/02/25 06:12:05;;;;;;;17.58;8.40;;;;;;;;;;5024429;28;20045;-65
2024/02/25 06:14:31;;;;;;;17.35;8.85;;;;;;;;;;5029576;28;20068;-65
2024/02/25 06:16:57;;;;;;;17.83;8.80;;;;;;;;;;5023341;28;20084;-65
2024/02/25 06:19:24;;;;;;;16.67;9.00;;;;;;;;;;5031023;28;20393;-65
2024/02/25 06:21:51;;;;;;;20.33;9.75;;;;;;;;;;5032690;28;20551;-65
2024/02/25 06:24:17;;;;;;;19.65;9.82;;;;;;;;;;5032115;28;20125;-65
2024/02/25 06:26:44;;;;;;;22.85;10.52;;;;;;;;;;5032222;28;20053;-64
2024/02/25 06:29:11;;;;;;;20.65;9.85;;;;;;;;;;5034106;28;20564;-65
2024/02/25 06:31:38;;;;;;;21.27;10.20;;;;;;;;;;5030554;28;20049;-65
2024/02/25 06:34:04;;;;;;;23.02;10.57;;;;;;;;;;5021918;28;20413;-65
2024/02/25 06:36:31;;;;;;;18.55;10.32;;;;;;;;;;5019787;28;20088;-66
2024/02/25 06:38:57;;;;;;;20.60;10.90;;;;;;;;;;5016348;28;20103;-66
2024/02/25 06:41:24;;;;;;;21.55;10.77;;;;;;;;;;5016532;28;20101;-83
2024/02/25 06:43:54;;;;;;;20.23;11.05;;;;;;;;;;5022400;28;20703;-64
2024/02/25 06:46:20;;;;;;;25.60;11.65;;;;;;;;;;5031678;28;20424;-66
2024/02/25 06:48:47;;;;;;;22.17;11.25;;;;;;;;;;5030950;28;21127;-65
2024/02/25 06:51:20;;;;;;;27.95;12.15;;;;;;;;;;5030029;28;20056;-66
2024/02/25 06:53:47;;;;;;;21.52;11.05;;;;;;;;;;5028667;28;20049;-66
2024/02/25 06:56:13;;;;;;;29.33;12.98;;;;;;;;;;5027840;28;20076;-66
2024/02/25 06:58:39;;;;;;;25.27;12.60;;;;;;;;;;5015724;28;20100;-66
2024/02/25 07:01:06;;;;;;;28.67;12.15;;;;;;;;;;5016889;28;20052;-66
2024/02/25 07:03:32;;;;;;;27.17;12.32;;;;;;;;;;5015521;28;20069;-66
2024/02/25 07:05:58;;;;;;;28.48;12.52;;;;;;;;;;5020920;28;20041;-66
2024/02/25 07:08:24;;;;;;;35.05;13.43;;;;;;;;;;5018424;28;20050;-65
2024/02/25 07:10:52;;;;;;;31.95;13.10;;;;;;;;;;5019760;28;20374;-65
2024/02/25 07:13:18;;;;;;;32.15;13.30;;;;;;;;;;5025636;28;20049;-66
2024/02/25 07:15:45;;;;;;;29.70;13.90;;;;;;;;;;5008817;28;20394;-66
2024/02/25 07:18:13;;;;;;;28.23;14.65;;;;;;;;;;5025263;28;20396;-65
2024/02/25 07:20:39;;;;;;;31.50;14.40;;;;;;;;;;5023333;28;20060;-65
2024/02/25 07:23:06;;;;;;;28.63;13.57;;;;;;;;;;5025348;28;20128;-65
2024/02/25 07:25:32;;;;;;;27.77;14.25;;;;;;;;;;5024115;28;20045;-65
2024/02/25 07:27:58;;;;;;;31.30;13.85;;;;;;;;;;5021846;28;20059;-65
2024/02/25 07:30:24;;;;;;;35.60;15.07;;;;;;;;;;4998131;28;20084;-65
2024/02/25 07:32:50;;;;;;;34.35;16.15;;;;;;;;;;5021546;28;20096;-65
2024/02/25 07:35:17;;;;;;;36.55;16.13;;;;;;;;;;5019529;28;20436;-65
2024/02/25 07:37:43;;;;;;;34.03;15.85;;;;;;;;;;5024985;28;20049;-65
2024/02/25 07:40:10;;;;;;;36.20;15.32;;;;;;;;;;5022232;28;20052;-65
2024/02/25 07:42:36;;;;;;;35.03;16.02;;;;;;;;;;5004380;28;20049;-66
2024/02/25 07:45:02;;;;;;;41.90;16.25;;;;;;;;;;5021904;28;20034;-66
2024/02/25 07:47:28;;;;;;;37.42;16.58;;;;;;;;;;5028745;28;20049;-65
2024/02/25 07:49:54;;;;;;;38.90;16.92;;;;;;;;;;5025820;28;20349;-65
2024/02/25 07:52:21;;;;;;;36.97;16.73;;;;;;;;;;5022615;28;20049;-66
2024/02/25 07:54:47;;;;;;;37.00;16.73;;;;;;;;;;5019043;28;20053;-66
2024/02/25 07:57:13;;;;;;;28.38;13.38;;;;;;;;;;5009707;28;20039;-66
2024/02/25 07:59:39;;;;;;;27.27;13.02;;;;;;;;;;5028804;28;20088;-66
2024/02/25 08:02:06;;;;;;;29.42;13.43;;;;;;;;;;5024140;28;20122;-66
2024/02/25 08:04:36;;;;;;;28.63;12.55;;;;;;;;;;5024748;28;20868;-66
2024/02/25 08:07:02;;;;;;;26.00;12.23;;;;;;;;;;5024313;28;20081;-66
2024/02/25 08:09:28;;;;;;;27.08;11.82;;;;;;;;;;5021179;28;20077;-66
2024/02/25 08:11:57;;;;;;;33.60;15.52;;;;;;;;;;5029753;28;20041;-66
2024/02/25 08:14:24;;;;;;;34.42;15.57;;;;;;;;;;5020802;28;20051;-66
2024/02/25 08:16:50;;;;;;;35.78;16.73;;;;;;;;;;5026962;28;20042;-66
2024/02/25 08:19:16;;;;;;;34.25;16.20;;;;;;;;;;5023180;28;20049;-66
2024/02/25 08:21:42;;;;;;;39.75;16.90;;;;;;;;;;5027433;28;20128;-66
2024/02/25 08:24:09;;;;;;;38.38;17.17;;;;;;;;;;5025092;28;20049;-65
2024/02/25 08:26:36;;;;;;;44.25;18.80;;;;;;;;;;5021478;28;20056;-66
2024/02/25 08:29:02;;;;;;;48.95;20.27;;;;;;;;;;5029714;28;20123;-66
2024/02/25 08:31:28;;;;;;;48.72;20.27;;;;;;;;;;5023248;28;20052;-66
2024/02/25 08:33:55;;;;;;;50.50;21.42;;;;;;;;;;5022855;28;20053;-65
2024/02/25 08:36:21;;;;;;;46.90;21.52;;;;;;;;;;5025234;28;20041;-66
2024/02/25 08:38:48;;;;;;;49.13;20.83;;;;;;;;;;5039279;28;20481;-66
2024/02/25 08:41:14;;;;;;;47.08;20.23;;;;;;;;;;5022617;28;20052;-66
2024/02/25 08:43:41;;;;;;;50.08;20.58;;;;;;;;;;5022852;28;20107;-66
2024/02/25 08:46:07;;;;;;;48.50;20.05;;;;;;;;;;5027536;28;20103;-65
2024/02/25 08:48:34;;;;;;;47.42;20.50;;;;;;;;;;5025794;28;20056;-66
2024/02/25 08:51:00;;;;;;;61.17;21.73;;;;;;;;;;5024168;28;20033;-66
2024/02/25 08:53:26;;;;;;;49.90;21.05;;;;;;;;;;5030332;28;20156;-65
2024/02/25 08:55:52;;;;;;;47.45;20.88;;;;;;;;;;5030302;28;20092;-66
2024/02/25 08:58:18;;;;;;;47.47;19.90;;;;;;;;;;5029510;28;20037;-66
2024/02/25 09:00:45;;;;;;;45.33;19.65;;;;;;;;;;5032615;28;20057;-66
2024/02/25 09:03:12;;;;;;;45.45;19.92;;;;;;;;;;5028894;28;20053;-66
2024/02/25 09:05:38;;;;;;;50.42;19.52;;;;;;;;;;5028158;28;20124;-66
2024/02/25 09:08:04;;;;;;;44.95;17.23;;;;;;;;;;5033092;28;20448;-66
2024/02/25 09:10:33;;;;;;;39.22;17.35;;;;;;;;;;5033021;28;20037;-66
2024/02/25 09:13:02;;;;;;;40.83;16.90;;;;;;;;;;5027204;28;20507;-66
2024/02/25 09:15:29;;;;;;;39.60;16.63;;;;;;;;;;5034316;28;20131;-66
2024/02/25 09:17:57;;;;;;;35.72;15.35;;;;;;;;;;5035772;28;20046;-66
2024/02/25 09:20:25;;;;;;;35.22;15.45;;;;;;;;;;5035301;28;20106;-66
2024/02/25 09:22:51;;;;;;;27.30;13.98;;;;;;;;;;5034176;28;20072;-66
2024/02/25 09:25:17;;;;;;;37.50;15.80;;;;;;;;;;5033859;28;20382;-66
2024/02/25 09:27:44;;;;;;;29.77;15.20;;;;;;;;;;5035252;28;20157;-66
2024/02/25 09:30:12;;;;;;;35.08;15.02;;;;;;;;;;5033209;28;20057;-66
2024/02/25 09:32:38;;;;;;;38.28;15.65;;;;;;;;;;5032440;28;20164;-66
2024/02/25 09:35:05;;;;;;;35.13;16.50;;;;;;;;;;5032081;28;20077;-66
2024/02/25 09:37:31;;;;;;;30.85;14.77;;;;;;;;;;5029947;28;20056;-66
2024/02/25 09:39:57;;;;;;;42.45;16.88;;;;;;;;;;5032208;28;20485;-66
2024/02/25 09:42:23;;;;;;;34.33;16.33;;;;;;;;;;5045745;28;20042;-66
2024/02/25 09:44:54;;;;;;;42.25;18.48;;;;;;;;;;5015859;28;20050;-65
2024/02/25 09:47:21;;;;;;;37.42;16.60;;;;;;;;;;5028453;28;20139;-66
2024/02/25 09:49:49;;;;;;;39.08;17.08;;;;;;;;;;5032366;28;20460;-66
2024/02/25 09:52:17;;;;;;;41.95;16.95;;;;;;;;;;5043623;28;20076;-66
2024/02/25 09:54:46;;;;;;;37.88;17.40;;;;;;;;;;5031170;28;20053;-66
2024/02/25 09:57:12;;;;;;;29.90;15.32;;;;;;;;;;5031995;28;20124;-66
2024/02/25 09:59:38;;;;;;;28.38;14.88;;;;;;;;;;5036320;28;20053;-66
2024/02/25 10:02:06;;;;;;;39.33;16.17;;;;;;;;;;5033913;28;20573;-66
2024/02/25 10:04:33;;;;;;;40.85;16.65;;;;;;;;;;5031602;28;20053;-66
2024/02/25 10:07:00;;;;;;;33.65;16.38;;;;;;;;;;5031862;28;20128;-66
2024/02/25 10:09:29;;;;;;;30.42;15.60;;;;;;;;;;5033219;28;20386;-66
2024/02/25 10:11:55;;;;;;;35.92;16.60;;;;;;;;;;5032276;28;20376;-66
2024/02/25 10:14:22;;;;;;;38.28;15.45;;;;;;;;;;5033095;28;20038;-66
2024/02/25 10:17:01;;;;;;;37.35;15.27;;;;;;;;;;5030751;28;20046;-65
2024/02/25 10:19:28;;;;;;;38.08;16.35;;;;;;;;;;5034014;28;20041;-66
2024/02/25 10:22:03;;;;;;;33.45;15.30;;;;;;;;;;5034437;28;20131;-65
2024/02/25 10:24:30;;;;;;;34.00;16.38;;;;;;;;;;5050049;28;20037;-66
2024/02/25 10:27:10;;;;;;;31.38;15.32;;;;;;;;;;5035551;28;20129;-66
2024/02/25 10:29:50;;;;;;;33.08;14.27;;;;;;;;;;5011571;28;20390;-66
2024/02/25 10:32:22;;;;;;;25.88;13.73;;;;;;;;;;5026497;28;20417;-66
2024/02/25 10:34:50;;;;;;;28.92;14.55;;;;;;;;;;5032882;28;20044;-66
2024/02/25 10:37:16;;;;;;;33.63;15.00;;;;;;;;;;5014013;28;20119;-66
2024/02/25 10:39:44;;;;;;;26.50;14.10;;;;;;;;;;5009142;28;20056;-65
2024/02/25 10:42:11;;;;;;;28.20;14.75;;;;;;;;;;5027265;28;20041;-65
2024/02/25 10:44:38;;;;;;;32.20;15.27;;;;;;;;;;5007597;28;20045;-65
2024/02/25 10:47:07;;;;;;;28.75;14.38;;;;;;;;;;5008926;28;20042;-65
2024/02/25 10:49:33;;;;;;;36.42;16.45;;;;;;;;;;5013305;28;20129;-65
2024/02/25 10:52:00;;;;;;;35.67;16.50;;;;;;;;;;5009125;28;20072;-65
2024/02/25 10:54:26;;;;;;;32.60;16.38;;;;;;;;;;5026497;28;20121;-65
2024/02/25 10:56:52;;;;;;;38.78;17.38;;;;;;;;;;5007876;28;20042;-66
2024/02/25 10:59:19;;;;;;;34.10;17.40;;;;;;;;;;5008959;28;20076;-65
2024/02/25 11:01:45;;;;;;;35.30;17.10;;;;;;;;;;5010010;28;20386;-65
2024/02/25 11:04:12;;;;;;;38.92;17.92;;;;;;;;;;5007642;28;20714;-65
2024/02/25 11:06:39;;;;;;;40.55;19.10;;;;;;;;;;5019177;28;20038;-65
2024/02/25 11:09:12;;;;;;;36.15;18.45;;;;;;;;;;5023059;28;20061;-65
2024/02/25 11:11:39;;;;;;;40.10;19.60;;;;;;;;;;4989142;28;20054;-66
2024/02/25 11:14:06;;;;;;;40.53;19.20;;;;;;;;;;5002699;28;20088;-66
2024/02/25 11:16:36;;;;;;;38.58;19.15;;;;;;;;;;5003686;28;20065;-66
2024/02/25 11:19:03;;;;;;;39.47;19.80;;;;;;;;;;5004329;28;20442;-65
2024/02/25 11:21:30;;;;;;;35.00;17.98;;;;;;;;;;5007713;28;20064;-65
2024/02/25 11:23:57;;;;;;;41.00;19.58;;;;;;;;;;5024485;28;20060;-65
2024/02/25 11:26:33;;;;;;;41.22;19.95;;;;;;;;;;5008360;28;20496;-65
2024/02/25 11:29:14;;;;;;;36.50;18.92;;;;;;;;;;5025918;28;20053;-65
2024/02/25 11:31:47;;;;;;;35.92;18.17;;;;;;;;;;5025773;28;20052;-77
2024/02/25 11:34:13;;;;;;;39.67;19.77;;;;;;;;;;5020198;28;20042;-64
2024/02/25 11:36:41;;;;;;;40.70;18.65;;;;;;;;;;5022020;28;20107;-65
2024/02/25 11:39:07;;;;;;;38.47;17.83;;;;;;;;;;5022023;28;20136;-65
2024/02/25 11:41:34;;;;;;;35.67;17.75;;;;;;;;;;5023518;28;20049;-64
2024/02/25 11:44:00;;;;;;;31.73;17.10;;;;;;;;;;5022130;28;20052;-64
2024/02/25 11:46:26;;;;;;;35.13;18.40;;;;;;;;;;5024578;28;20103;-64
2024/02/25 11:48:53;;;;;;;33.15;17.20;;;;;;;;;;5021670;28;20478;-64
2024/02/25 11:51:19;;;;;;;29.85;16.63;;;;;;;;;;5017699;28;20478;-64
2024/02/25 11:53:51;;;;;;;28.65;17.02;;;;;;;;;;5019172;28;20124;-64
2024/02/25 11:56:17;;;;;;;29.10;16.50;;;;;;;;;;5017637;28;20556;-64
2024/02/25 11:58:43;;;;;;;28.77;16.70;;;;;;;;;;5021956;28;20065;-64
2024/02/25 12:01:10;;;;;;;26.35;16.95;;;;;;;;;;5023237;28;20049;-65
2024/02/25 12:03:38;;;;;;;30.67;17.85;;;;;;;;;;5012928;28;20208;-66
2024/02/25 12:06:04;;;;;;;30.10;18.23;;;;;;;;;;5017789;28;20465;-65
2024/02/25 12:08:31;;;;;;;27.85;17.02;;;;;;;;;;5014063;28;20053;-65
2024/02/25 12:11:00;;;;;;;31.38;18.90;;;;;;;;;;5023595;28;20037;-65
2024/02/25 12:13:27;;;;;;;28.27;17.77;;;;;;;;;;5008607;28;20049;-65
2024/02/25 12:15:53;;;;;;;30.30;19.00;;;;;;;;;;5020791;28;20041;-65
2024/02/25 12:18:20;;;;;;;31.73;17.80;;;;;;;;;;5020587;28;20053;-65
2024/02/25 12:20:46;;;;;;;29.40;17.98;;;;;;;;;;5019365;28;20049;-65
2024/02/25 12:23:14;;;;;;;30.50;18.50;;;;;;;;;;5024604;28;20089;-65
2024/02/25 12:25:40;;;;;;;27.65;17.88;;;;;;;;;;5022574;28;20048;-65
2024/02/25 12:28:07;;;;;;;32.25;18.88;;;;;;;;;;5025487;28;20053;-65
2024/02/25 12:30:35;;;;;;;28.45;18.13;;;;;;;;;;5027277;28;20084;-64
2024/02/25 12:33:05;;;;;;;26.95;16.92;;;;;;;;;;5029707;28;20401;-65
2024/02/25 12:35:31;;;;;;;31.73;19.92;;;;;;;;;;5016357;28;20037;-65
2024/02/25 12:37:58;;;;;;;29.67;19.45;;;;;;;;;;5020661;28;20068;-65
2024/02/25 12:40:24;;;;;;;26.35;16.75;;;;;;;;;;5008482;28;20476;-65
2024/02/25 12:42:53;;;;;;;32.30;19.50;;;;;;;;;;5026137;28;20053;-65
2024/02/25 12:45:20;;;;;;;25.10;17.33;;;;;;;;;;5031158;28;20041;-63
2024/02/25 12:47:47;;;;;;;25.83;17.08;;;;;;;;;;5029422;28;20073;-71
2024/02/25 12:50:13;;;;;;;24.17;16.67;;;;;;;;;;5038966;28;20029;-64
2024/02/25 12:52:42;;;;;;;24.95;17.55;;;;;;;;;;5030055;28;20052;-63
2024/02/25 12:55:08;;;;;;;25.10;17.73;;;;;;;;;;5038008;28;20048;-64
2024/02/25 12:57:36;;;;;;;27.02;17.77;;;;;;;;;;5030552;28;20505;-63
2024/02/25 13:00:03;;;;;;;25.48;17.23;;;;;;;;;;5040968;28;20479;-63
2024/02/25 13:02:29;;;;;;;27.60;17.98;;;;;;;;;;5040764;28;20040;-71
2024/02/25 13:04:55;;;;;;;26.85;17.08;;;;;;;;;;5036067;28;20041;-63
2024/02/25 13:07:21;;;;;;;26.05;17.15;;;;;;;;;;5039072;28;20037;-63
2024/02/25 13:09:47;;;;;;;25.13;18.33;;;;;;;;;;5038313;28;20078;-63
2024/02/25 13:12:14;;;;;;;24.40;16.95;;;;;;;;;;5039296;28;20128;-63
2024/02/25 13:14:40;;;;;;;24.98;18.08;;;;;;;;;;5039297;28;20126;-63
2024/02/25 13:17:08;;;;;;;25.38;17.05;;;;;;;;;;5024304;28;20045;-63
2024/02/25 13:19:34;;;;;;;25.40;18.17;;;;;;;;;;5023499;28;20050;-63
2024/02/25 13:22:00;;;;;;;26.05;18.58;;;;;;;;;;5024853;28;20171;-63
2024/02/25 13:24:26;;;;;;;25.35;18.13;;;;;;;;;;5026546;28;20239;-63
2024/02/25 13:26:52;;;;;;;24.98;17.48;;;;;;;;;;5023633;28;20830;-64
2024/02/25 13:29:18;;;;;;;26.10;18.98;;;;;;;;;;5027685;28;20067;-63
2024/02/25 13:31:45;;;;;;;23.65;17.73;;;;;;;;;;5022100;28;20041;-63
2024/02/25 13:34:11;;;;;;;26.23;19.15;;;;;;;;;;5024321;28;20063;-63
2024/02/25 13:36:37;;;;;;;25.45;18.33;;;;;;;;;;5025075;28;20041;-63
2024/02/25 13:39:03;;;;;;;26.50;19.02;;;;;;;;;;5023900;28;20045;-63
2024/02/25 13:41:31;;;;;;;28.08;19.35;;;;;;;;;;5026249;28;20042;-63
2024/02/25 13:43:58;;;;;;;25.55;17.95;;;;;;;;;;5026717;28;20050;-63
2024/02/25 13:46:25;;;;;;;25.52;17.88;;;;;;;;;;5024204;28;20037;-63
2024/02/25 13:48:51;;;;;;;23.02;18.38;;;;;;;;;;5020555;28;20118;-63
2024/02/25 13:51:20;;;;;;;24.75;17.92;;;;;;;;;;5024735;28;20046;-63
2024/02/25 13:53:46;;;;;;;25.15;18.00;;;;;;;;;;5023220;28;20404;-63
2024/02/25 13:56:13;;;;;;;25.00;18.50;;;;;;;;;;5027646;28;21440;-63
2024/02/25 13:58:39;;;;;;;23.73;18.35;;;;;;;;;;5023863;28;20120;-63
2024/02/25 14:01:05;;;;;;;22.30;17.40;;;;;;;;;;5022581;28;20105;-63
2024/02/25 14:03:31;;;;;;;22.00;17.30;;;;;;;;;;5025940;28;20045;-63
2024/02/25 14:05:58;;;;;;;21.83;17.25;;;;;;;;;;5025522;28;20064;-63
2024/02/25 14:08:24;;;;;;;22.45;16.45;;;;;;;;;;5025704;28;20056;-63
2024/02/25 14:10:51;;;;;;;21.55;15.85;;;;;;;;;;5021117;28;20116;-63
2024/02/25 14:13:17;;;;;;;21.63;17.33;;;;;;;;;;5023698;28;20102;-63
2024/02/25 14:15:44;;;;;;;20.45;16.45;;;;;;;;;;5025163;28;20054;-63
2024/02/25 14:18:13;;;;;;;19.95;16.20;;;;;;;;;;5022699;28;20119;-63
2024/02/25 14:20:39;;;;;;;23.52;16.58;;;;;;;;;;5025647;28;20072;-63
2024/02/25 14:23:08;;;;;;;20.15;16.50;;;;;;;;;;5024197;28;20057;-63